createdAt,value
2018-08-06T00:00:19.958Z,21.00
2018-08-06T00:02:47.108Z,21.00
2018-08-06T00:05:14.103Z,21.00
2018-08-06T00:07:41.075Z,20.90
2018-08-06T00:10:11.512Z,20.70
2018-08-06T00:12:38.459Z,20.70
2018-08-06T00:15:06.683Z,20.60
2018-08-06T00:17:33.678Z,20.60
2018-08-06T00:20:00.677Z,20.60
2018-08-06T00:49:26.081Z,20.50
2018-08-06T00:51:53.459Z,19.80
2018-08-06T00:54:20.433Z,19.80
2018-08-06T00:56:47.481Z,19.80
2018-08-06T01:01:41.578Z,19.80
2018-08-06T01:04:08.528Z,19.70
2018-08-06T01:06:35.527Z,19.70
2018-08-06T01:09:02.711Z,19.70
2018-08-06T01:11:29.739Z,19.60
2018-08-06T01:13:56.733Z,19.60
2018-08-06T01:16:23.759Z,19.50
2018-08-06T01:18:50.797Z,19.50
2018-08-06T01:21:17.808Z,19.50
2018-08-06T01:23:44.825Z,19.40
2018-08-06T01:26:11.877Z,19.40
2018-08-06T01:28:38.880Z,19.40
2018-08-06T01:31:06.348Z,19.50
2018-08-06T01:33:33.321Z,19.40
2018-08-06T01:36:00.337Z,19.30
2018-08-06T01:38:27.402Z,19.30
2018-08-06T01:40:54.368Z,19.30
2018-08-06T01:43:21.333Z,19.10
2018-08-06T01:45:48.373Z,19.20
2018-08-06T01:48:15.311Z,19.10
2018-08-06T01:50:42.585Z,19.10
2018-08-06T01:53:09.617Z,19.20
2018-08-06T01:55:36.572Z,19.20
2018-08-06T01:58:03.532Z,19.10
2018-08-06T02:00:30.533Z,19.20
2018-08-06T02:02:57.497Z,19.10
2018-08-06T02:05:24.522Z,19.00
2018-08-06T02:07:51.579Z,19.00
2018-08-06T02:10:18.596Z,18.90
2018-08-06T02:12:45.981Z,19.00
2018-08-06T02:15:13.069Z,19.10
2018-08-06T02:17:40.234Z,19.00
2018-08-06T02:20:09.224Z,18.90
2018-08-06T02:22:36.715Z,18.90
2018-08-06T02:25:05.358Z,18.90
2018-08-06T02:27:32.359Z,18.90
2018-08-06T02:29:59.323Z,18.80
2018-08-06T02:32:26.270Z,18.80
2018-08-06T02:34:53.262Z,18.80
2018-08-06T02:37:20.217Z,18.80
2018-08-06T02:39:47.239Z,18.70
2018-08-06T02:42:14.278Z,18.70
2018-08-06T02:44:41.319Z,18.60
2018-08-06T02:47:08.369Z,18.60
2018-08-06T02:49:35.351Z,18.60
2018-08-06T02:52:02.402Z,18.60
2018-08-06T02:54:29.336Z,18.60
2018-08-06T02:56:56.314Z,18.60
2018-08-06T02:59:23.675Z,18.50
2018-08-06T03:01:50.647Z,18.50
2018-08-06T03:04:17.677Z,18.40
2018-08-06T03:06:44.640Z,18.40
2018-08-06T03:09:12.359Z,18.40
2018-08-06T03:11:39.657Z,18.30
2018-08-06T03:14:06.734Z,18.30
2018-08-06T03:16:33.696Z,18.30
2018-08-06T03:19:00.650Z,18.40
2018-08-06T03:21:27.713Z,18.30
2018-08-06T03:23:54.730Z,18.40
2018-08-06T03:26:21.717Z,18.30
2018-08-06T03:28:48.675Z,18.40
2018-08-06T03:31:15.670Z,18.30
2018-08-06T03:33:42.710Z,18.30
2018-08-06T03:36:09.735Z,18.30
2018-08-06T03:38:36.972Z,18.20
2018-08-06T03:41:03.921Z,18.10
2018-08-06T03:43:30.968Z,18.00
2018-08-06T03:45:57.983Z,18.10
2018-08-06T03:48:24.924Z,18.10
2018-08-06T03:50:51.943Z,18.00
2018-08-06T03:53:18.924Z,18.00
2018-08-06T03:55:45.885Z,18.00
2018-08-06T03:58:12.862Z,18.10
2018-08-06T04:00:39.856Z,18.10
2018-08-06T04:03:06.810Z,18.00
2018-08-06T04:05:33.794Z,17.80
2018-08-06T04:08:00.716Z,17.80
2018-08-06T04:10:27.696Z,17.90
2018-08-06T04:12:54.987Z,17.90
2018-08-06T04:15:21.965Z,17.90
2018-08-06T04:17:48.974Z,18.00
2018-08-06T04:20:16.017Z,18.00
2018-08-06T04:22:43.378Z,17.90
2018-08-06T04:25:10.392Z,18.00
2018-08-06T04:27:37.765Z,18.10
2018-08-06T04:30:06.951Z,18.10
2018-08-06T04:32:33.934Z,18.10
2018-08-06T04:35:00.897Z,18.20
2018-08-06T04:37:27.824Z,18.40
2018-08-06T04:39:54.798Z,18.70
2018-08-06T04:42:22.146Z,18.90
2018-08-06T04:44:49.314Z,18.90
2018-08-06T04:47:16.348Z,19.00
2018-08-06T04:49:43.308Z,19.20
2018-08-06T04:52:10.332Z,19.40
2018-08-06T04:54:37.317Z,19.40
2018-08-06T04:57:04.426Z,19.30
2018-08-06T04:59:31.427Z,19.40
2018-08-06T05:01:58.372Z,19.50
2018-08-06T05:04:25.366Z,19.70
2018-08-06T05:06:52.349Z,19.90
2018-08-06T05:09:20.938Z,19.90
2018-08-06T05:11:49.048Z,20.10
2018-08-06T05:14:15.992Z,20.90
2018-08-06T05:16:43.164Z,21.70
2018-08-06T05:19:10.394Z,22.20
2018-08-06T05:21:37.527Z,22.40
2018-08-06T05:24:04.549Z,22.60
2018-08-06T05:26:31.543Z,22.50
2018-08-06T05:28:58.551Z,22.40
2018-08-06T05:31:26.596Z,22.20
2018-08-06T05:33:54.051Z,21.70
2018-08-06T05:36:21.868Z,21.60
2018-08-06T05:38:49.416Z,21.80
2018-08-06T05:43:43.501Z,21.60
2018-08-06T05:46:10.523Z,21.60
2018-08-06T05:48:38.048Z,21.60
2018-08-06T05:51:05.269Z,21.60
2018-08-06T05:53:32.324Z,21.60
2018-08-06T05:55:59.334Z,21.60
2018-08-06T05:58:26.346Z,21.70
2018-08-06T06:00:53.365Z,21.80
2018-08-06T06:03:20.368Z,22.10
2018-08-06T06:05:47.345Z,22.20
2018-08-06T06:08:14.357Z,22.20
2018-08-06T06:10:41.388Z,22.30
2018-08-06T06:13:08.374Z,22.40
2018-08-06T06:15:35.413Z,22.50
2018-08-06T06:18:02.413Z,22.60
2018-08-06T06:20:29.386Z,22.50
2018-08-06T06:22:56.603Z,22.80
2018-08-06T06:25:23.576Z,23.00
2018-08-06T06:27:50.550Z,23.50
2018-08-06T06:30:17.644Z,24.00
2018-08-06T06:32:44.742Z,24.50
2018-08-06T06:35:12.644Z,24.70
2018-08-06T06:37:39.640Z,24.90
2018-08-06T06:40:06.551Z,25.20
2018-08-06T06:42:33.549Z,25.40
2018-08-06T06:45:00.641Z,25.40
2018-08-06T06:47:27.669Z,25.90
2018-08-06T06:49:54.731Z,26.40
2018-08-06T06:52:21.757Z,26.50
2018-08-06T06:54:48.763Z,27.00
2018-08-06T06:57:15.766Z,27.40
2018-08-06T06:59:42.954Z,27.30
2018-08-06T07:02:10.069Z,27.80
2018-08-06T07:04:37.066Z,28.20
2018-08-06T07:09:32.085Z,28.60
2018-08-06T07:43:51.584Z,29.30
2018-08-06T07:46:18.668Z,31.80
2018-08-06T08:03:28.393Z,28.90
2018-08-06T08:05:55.426Z,30.10
2018-08-06T08:08:22.467Z,30.60
2018-08-06T08:10:49.466Z,31.20
2018-08-06T08:13:16.531Z,32.00
2018-08-06T08:15:43.510Z,31.40
2018-08-06T08:18:10.574Z,30.90
2018-08-06T08:20:37.598Z,30.90
2018-08-06T08:23:04.632Z,31.60
2018-08-06T08:25:31.691Z,30.90
2018-08-06T08:27:58.760Z,30.70
2018-08-06T08:30:25.755Z,31.40
2018-08-06T08:32:52.760Z,30.90
2018-08-06T08:35:19.795Z,30.80
2018-08-06T08:42:42.635Z,31.50
2018-08-06T08:45:11.675Z,31.60
2018-08-06T18:07:10.352Z,29.90
2018-08-06T18:09:37.337Z,27.80
2018-08-06T18:12:04.350Z,27.60
2018-08-06T18:14:31.351Z,27.50
2018-08-06T18:16:58.342Z,27.40
2018-08-06T18:19:25.390Z,27.30
2018-08-06T18:21:52.414Z,27.20
2018-08-06T18:24:19.353Z,27.20
2018-08-06T18:26:46.637Z,27.10
2018-08-06T18:29:13.658Z,27.00
2018-08-06T18:31:40.624Z,27.00
2018-08-06T18:36:34.788Z,26.80
2018-08-06T18:39:01.745Z,26.80
2018-08-06T18:41:29.762Z,26.70
2018-08-06T18:43:56.816Z,26.60
2018-08-06T18:46:23.797Z,26.50
2018-08-06T18:48:50.765Z,26.50
2018-08-06T18:51:18.071Z,26.40
2018-08-06T18:53:45.062Z,26.30
2018-08-06T18:56:12.386Z,26.30
2018-08-06T18:58:39.358Z,26.20
2018-08-06T19:01:06.895Z,26.10
2018-08-06T19:03:33.841Z,26.10
2018-08-06T19:06:00.842Z,26.00
2018-08-06T19:08:27.819Z,25.90
2018-08-06T19:10:54.874Z,25.80
2018-08-06T19:13:27.694Z,25.70
2018-08-06T19:15:54.685Z,25.60
2018-08-06T19:18:27.370Z,25.40
2018-08-06T19:20:54.378Z,25.30
2018-08-06T19:23:21.687Z,25.20
2018-08-06T19:25:48.688Z,25.30
2018-08-06T19:28:15.711Z,25.30
2018-08-06T19:30:48.697Z,25.10
2018-08-06T19:33:15.715Z,25.10
2018-08-06T19:35:42.714Z,25.10
2018-08-06T19:38:09.722Z,25.00
2018-08-06T19:40:36.949Z,25.00
2018-08-06T19:43:09.942Z,25.00
2018-08-06T19:45:36.977Z,25.00
2018-08-06T19:48:03.920Z,24.90
2018-08-06T19:53:05.296Z,25.00
2018-08-06T19:55:38.219Z,25.00
2018-08-06T19:58:05.522Z,24.90
2018-08-06T20:00:32.555Z,24.90
2018-08-06T20:02:59.883Z,24.70
2018-08-06T20:05:26.895Z,24.60
2018-08-06T20:07:53.838Z,24.70
2018-08-06T20:10:20.884Z,24.60
2018-08-06T20:12:47.930Z,24.50
2018-08-06T20:15:16.666Z,24.50
2018-08-06T20:17:43.803Z,24.40
2018-08-06T20:20:12.605Z,24.30
2018-08-06T20:22:39.692Z,24.20
2018-08-06T20:25:09.513Z,24.20
2018-08-06T20:27:36.481Z,24.10
2018-08-06T20:30:05.282Z,24.00
2018-08-06T20:32:32.344Z,23.90
2018-08-06T20:34:59.350Z,23.90
2018-08-06T20:37:26.321Z,23.80
2018-08-06T20:39:53.452Z,23.80
2018-08-06T20:42:20.659Z,23.80
2018-08-06T20:44:47.871Z,23.80
2018-08-06T20:47:14.845Z,23.70
2018-08-06T20:49:41.945Z,23.70
2018-08-06T20:52:08.975Z,23.70
2018-08-06T20:54:35.944Z,23.70
2018-08-06T20:57:02.938Z,23.60
2018-08-06T21:01:57.065Z,23.60
2018-08-06T21:04:24.106Z,23.50
2018-08-06T21:06:51.151Z,23.50
2018-08-06T21:09:18.191Z,23.50
2018-08-06T21:11:45.219Z,23.60
2018-08-06T21:14:12.230Z,23.50
2018-08-06T21:16:39.221Z,23.60
2018-08-06T21:19:06.304Z,23.60
2018-08-06T21:21:33.623Z,23.50
2018-08-06T21:24:00.648Z,23.50
2018-08-06T21:26:28.654Z,23.40
2018-08-06T21:28:55.637Z,23.30
2018-08-06T21:31:22.608Z,23.30
2018-08-06T21:33:49.696Z,23.30
2018-08-06T21:36:18.283Z,23.30
2018-08-06T21:38:47.038Z,23.20
2018-08-06T21:41:14.809Z,23.20
2018-08-06T21:43:41.961Z,23.20
2018-08-06T21:46:08.961Z,23.10
2018-08-06T21:48:35.948Z,23.10
2018-08-06T21:51:02.923Z,23.10
2018-08-06T21:53:29.943Z,23.00
2018-08-06T21:55:57.796Z,22.90
2018-08-06T21:58:24.733Z,22.90
2018-08-06T22:00:51.713Z,22.90
2018-08-06T22:03:18.683Z,22.90
2018-08-06T22:05:46.229Z,22.80
2018-08-06T22:08:13.610Z,22.80
2018-08-06T22:10:40.653Z,22.70
2018-08-06T22:13:08.490Z,22.70
2018-08-06T22:15:35.811Z,22.60
2018-08-06T22:18:02.849Z,22.60
2018-08-06T22:20:29.942Z,22.60
2018-08-06T22:22:56.968Z,22.60
2018-08-06T22:25:24.232Z,22.50
2018-08-06T22:27:51.268Z,22.50
2018-08-06T22:30:18.280Z,22.50
2018-08-06T22:32:45.287Z,22.50
2018-08-06T22:35:12.852Z,22.40
2018-08-06T22:37:40.529Z,22.40
2018-08-06T22:40:08.922Z,22.30
2018-08-06T22:42:35.968Z,22.30
2018-08-06T22:45:03.505Z,22.30
2018-08-06T22:47:30.777Z,22.20
2018-08-06T22:49:57.830Z,22.20
2018-08-06T22:52:24.806Z,22.20
2018-08-06T22:54:51.749Z,22.10
2018-08-06T22:57:18.760Z,22.10
2018-08-06T22:59:45.879Z,22.10
2018-08-06T23:02:12.929Z,22.10
2018-08-06T23:04:39.927Z,22.00
2018-08-06T23:07:06.962Z,22.00
2018-08-06T23:09:33.877Z,22.00
2018-08-06T23:12:00.849Z,21.90
2018-08-06T23:14:27.829Z,21.90
2018-08-06T23:16:54.769Z,21.90
2018-08-06T23:19:22.070Z,21.80
2018-08-06T23:21:49.025Z,21.80
2018-08-06T23:24:15.988Z,21.70
2018-08-06T23:26:42.990Z,21.70
2018-08-06T23:29:09.993Z,21.60
2018-08-06T23:31:36.978Z,21.60
2018-08-06T23:34:04.082Z,21.60
2018-08-06T23:36:30.992Z,21.50
2018-08-06T23:38:58.156Z,21.50
2018-08-06T23:41:25.139Z,21.40
2018-08-06T23:43:52.146Z,21.40
2018-08-06T23:46:19.226Z,21.40
2018-08-06T23:48:46.534Z,21.40
2018-08-06T23:51:13.609Z,21.40
2018-08-06T23:53:40.535Z,21.30
2018-08-06T23:56:07.539Z,21.30
2018-08-06T23:58:34.625Z,21.30
